Airfield :
LOGIN :

Register | Disclaimer

   EN    FR    IT 

 










Legend :    VFR   Marginal VFR   IFR   Intensive IFR   Very Intensive IFR
Visi :
Ceiling :
>= 8 km
>= 3000ft
5 to 8 km
1000 to 3000 ft
1500m to 5 km
500 to 1000 ft
800 to 1500m
200 to 500 ft
< 800m
< 200 ft
Symbols :   Thunderstorms  Fog  Heavy snow  Heavy precipitations  Wind > 20 kt
SIGMETs :     Misc.  Thunderstorms  Icing  Turbulence  Mountain Waves  Volcanic Ashes






- Airport Elevation : 265 ft


ETSH - Holzdorf AB

CURRENT METAR :
  • 071520Z 03006KT 9999 FEW080 SCT350 26/04 Q1022 BLU+BLU+

EXPIRED METARs :
  • 071420Z 34006KT 9999 FEW070 SCT350 25/04 Q1022 BLU+BLU+
  • 071320Z 36007KT 9999 SCT070 24/04 Q1023 BLU+BLU+

TAF TAF ETSH
Valid from the 07 at 14:00 until the 07 at 23:00 UTC


071331Z 0714/0723 30010KT 9999 NSW SCT070



MET'MAP, your aeronautical weather chart ! - Copyright ORBIFLY December 2007 - Disclaimer

ORBIFLY MET'MAP TEAM :

Programming & Development : Alexandra Zaïnal
Original concept : Baudouin d'Aumeries
Technical & hardware support : Manuel Goepfert
Assistance : Marc-Olivier Méhu




SOURCES & CREDITS :

   NOAA